createdAt,value
2022-09-23T00:00:49.478Z,14.69
2022-09-23T00:03:16.832Z,15.02
2022-09-23T00:05:44.177Z,15.32
2022-09-23T00:08:11.545Z,15.43
2022-09-23T00:10:38.917Z,15.62
2022-09-23T00:13:06.299Z,15.77
2022-09-23T00:15:52.421Z,15.84
2022-09-23T00:18:20.049Z,15.90
2022-09-23T00:20:47.388Z,16.01
2022-09-23T00:23:14.759Z,15.98
2022-09-23T00:25:42.113Z,16.02
2022-09-23T00:28:09.456Z,16.14
2022-09-23T00:30:36.924Z,16.01
2022-09-23T00:33:04.307Z,16.07
2022-09-23T00:35:31.679Z,16.00
2022-09-23T00:37:59.025Z,15.99
2022-09-23T00:40:38.572Z,16.12
2022-09-23T00:43:05.959Z,16.11
2022-09-23T00:45:33.296Z,16.12
2022-09-23T00:48:00.666Z,15.71
2022-09-23T00:50:28.033Z,15.66
2022-09-23T00:52:55.397Z,15.80
2022-09-23T00:55:22.755Z,15.80
2022-09-23T00:57:50.145Z,15.64
2022-09-23T01:00:17.513Z,15.87
2022-09-23T01:02:44.932Z,15.90
2022-09-23T01:05:12.454Z,15.88
2022-09-23T01:07:39.823Z,15.57
2022-09-23T01:10:07.189Z,15.08
2022-09-23T01:12:34.574Z,15.09
2022-09-23T01:15:01.919Z,14.95
2022-09-23T01:17:29.277Z,14.59
2022-09-23T01:19:56.664Z,14.65
2022-09-23T01:22:24.032Z,14.97
2022-09-23T01:24:51.384Z,15.25
2022-09-23T01:27:18.782Z,15.17
2022-09-23T01:29:48.063Z,15.51
2022-09-23T01:32:15.425Z,15.45
2022-09-23T01:34:42.817Z,15.68
2022-09-23T01:37:10.167Z,15.91
2022-09-23T01:39:37.538Z,15.64
2022-09-23T01:42:05.015Z,15.80
2022-09-23T01:44:34.296Z,15.58
2022-09-23T01:47:01.670Z,15.71
2022-09-23T01:49:29.044Z,15.66
2022-09-23T01:51:56.401Z,15.58
2022-09-23T01:54:25.780Z,15.16
2022-09-23T01:56:53.141Z,14.98
2022-09-23T01:59:20.507Z,15.20
2022-09-23T02:01:47.959Z,15.16
2022-09-23T02:04:15.389Z,15.35
2022-09-23T02:06:42.849Z,14.99
2022-09-23T02:09:10.418Z,15.09
2022-09-23T02:11:37.786Z,15.35
2022-09-23T02:14:05.151Z,15.28
2022-09-23T02:16:32.606Z,15.42
2022-09-23T02:19:00.094Z,15.41
2022-09-23T02:21:27.535Z,14.98
2022-09-23T02:23:54.897Z,15.12
2022-09-23T02:26:22.234Z,15.17
2022-09-23T02:28:49.606Z,15.15
2022-09-23T02:31:18.869Z,14.93
2022-09-23T02:33:46.216Z,15.19
2022-09-23T02:36:13.580Z,14.92
2022-09-23T02:38:40.920Z,14.94
2022-09-23T02:41:08.259Z,14.99
2022-09-23T02:43:35.670Z,14.99
2022-09-23T02:46:03.083Z,14.81
2022-09-23T02:48:30.480Z,14.90
2022-09-23T02:50:57.824Z,15.01
2022-09-23T02:53:25.180Z,15.33
2022-09-23T02:55:52.528Z,15.38
2022-09-23T02:58:20.094Z,15.49
2022-09-23T03:00:47.540Z,15.57
2022-09-23T03:03:16.857Z,15.53
2022-09-23T03:05:44.216Z,15.54
2022-09-23T03:08:11.559Z,15.54
2022-09-23T03:10:39.029Z,15.39
2022-09-23T03:13:06.370Z,15.16
2022-09-23T03:15:33.715Z,15.14
2022-09-23T03:18:01.078Z,14.99
2022-09-23T03:20:28.456Z,14.92
2022-09-23T03:22:55.803Z,15.30
2022-09-23T03:25:23.158Z,15.38
2022-09-23T03:27:50.527Z,15.39
2022-09-23T03:30:17.882Z,15.12
2022-09-23T03:32:45.252Z,14.71
2022-09-23T03:35:12.610Z,14.76
2022-09-23T03:37:39.969Z,14.76
2022-09-23T03:40:07.363Z,14.94
2022-09-23T03:42:34.739Z,14.71
2022-09-23T03:45:02.084Z,14.24
2022-09-23T03:47:29.433Z,13.61
2022-09-23T03:49:56.857Z,12.97
2022-09-23T03:52:24.243Z,12.80
2022-09-23T03:54:51.605Z,12.55
2022-09-23T03:57:18.965Z,12.57
2022-09-23T03:59:46.320Z,12.37
2022-09-23T04:02:13.880Z,12.26
2022-09-23T04:04:41.296Z,12.73
2022-09-23T04:07:08.665Z,12.96
2022-09-23T04:09:37.944Z,13.39
2022-09-23T04:12:05.299Z,13.55
2022-09-23T04:14:32.684Z,13.61
2022-09-23T04:17:00.040Z,13.71
2022-09-23T04:19:27.380Z,13.46
2022-09-23T04:21:54.740Z,13.48
2022-09-23T04:24:22.090Z,13.73
2022-09-23T04:26:49.431Z,13.84
2022-09-23T04:29:16.900Z,13.77
2022-09-23T04:31:44.263Z,14.05
2022-09-23T04:34:23.731Z,14.17
2022-09-23T04:36:52.979Z,14.27
2022-09-23T04:39:20.330Z,14.55
2022-09-23T04:41:47.784Z,14.54
2022-09-23T04:44:15.145Z,14.57
2022-09-23T04:46:42.591Z,14.57
2022-09-23T04:49:12.935Z,14.85
2022-09-23T04:51:40.287Z,14.69
2022-09-23T04:54:07.629Z,14.96
2022-09-23T04:56:34.997Z,14.97
2022-09-23T04:59:02.468Z,15.02
2022-09-23T05:01:29.926Z,14.79
2022-09-23T05:03:57.301Z,15.11
2022-09-23T05:06:24.640Z,15.29
2022-09-23T05:08:51.893Z,14.98
2022-09-23T05:11:19.239Z,15.33
2022-09-23T05:13:46.591Z,15.42
2022-09-23T05:16:13.995Z,15.54
2022-09-23T05:18:41.525Z,15.44
2022-09-23T05:21:08.885Z,15.39
2022-09-23T05:23:36.240Z,15.31
2022-09-23T05:26:03.618Z,15.30
2022-09-23T05:28:30.960Z,15.26
2022-09-23T05:30:58.357Z,15.13
2022-09-23T05:33:25.757Z,15.16
2022-09-23T05:35:53.113Z,14.96
2022-09-23T05:38:20.462Z,15.06
2022-09-23T05:40:49.803Z,14.25
2022-09-23T05:43:17.212Z,14.17
2022-09-23T05:45:44.562Z,14.17
2022-09-23T05:48:11.924Z,14.58
2022-09-23T05:50:39.288Z,14.05
2022-09-23T05:53:06.633Z,14.18
2022-09-23T05:55:33.999Z,14.29
2022-09-23T05:58:01.394Z,14.40
2022-09-23T06:00:28.770Z,14.17
2022-09-23T06:02:56.256Z,14.01
2022-09-23T06:05:23.687Z,14.19
2022-09-23T06:07:51.034Z,14.08
2022-09-23T06:10:18.390Z,14.41
2022-09-23T06:12:45.769Z,14.15
2022-09-23T06:15:13.132Z,13.90
2022-09-23T06:17:40.521Z,14.37
2022-09-23T06:20:07.877Z,14.39
2022-09-23T06:22:38.951Z,14.66
2022-09-23T06:25:07.367Z,14.80
2022-09-23T06:27:36.299Z,15.06
2022-09-23T06:30:03.901Z,15.18
2022-09-23T06:32:31.404Z,15.31
2022-09-23T06:34:58.774Z,15.24
2022-09-23T06:37:26.130Z,15.52
2022-09-23T06:39:53.496Z,15.56
2022-09-23T06:42:20.846Z,15.36
2022-09-23T06:44:48.191Z,15.47
2022-09-23T06:47:15.561Z,15.66
2022-09-23T06:49:42.903Z,15.81
2022-09-23T06:52:10.254Z,15.76
2022-09-23T06:54:37.624Z,15.72
2022-09-23T06:57:04.977Z,15.72
2022-09-23T06:59:32.334Z,15.20
2022-09-23T07:01:59.886Z,15.07
2022-09-23T07:04:29.364Z,14.93
2022-09-23T07:06:56.893Z,15.06
2022-09-23T07:09:24.266Z,15.15
2022-09-23T07:11:51.626Z,14.66
2022-09-23T07:14:18.979Z,15.07
2022-09-23T07:16:46.343Z,14.94
2022-09-23T07:19:13.722Z,14.71
2022-09-23T07:21:41.073Z,14.38
2022-09-23T07:24:09.632Z,14.71
2022-09-23T07:26:49.215Z,14.81
2022-09-23T07:29:16.574Z,14.73
2022-09-23T07:31:43.979Z,14.93
2022-09-23T07:34:11.407Z,14.91
2022-09-23T07:36:38.824Z,15.14
2022-09-23T07:39:06.211Z,14.79
2022-09-23T07:41:33.561Z,14.91
2022-09-23T07:44:01.034Z,14.85
2022-09-23T07:46:28.439Z,15.01
2022-09-23T07:48:55.815Z,15.10
2022-09-23T07:51:23.173Z,15.14
2022-09-23T07:53:50.553Z,15.03
2022-09-23T07:56:17.918Z,15.26
2022-09-23T07:58:45.389Z,15.53
2022-09-23T08:01:12.802Z,15.55
2022-09-23T08:03:40.183Z,15.50
2022-09-23T08:06:07.547Z,15.65
2022-09-23T08:08:34.768Z,15.31
2022-09-23T08:11:02.233Z,15.75
2022-09-23T08:13:29.606Z,15.70
2022-09-23T08:15:57.031Z,15.17
2022-09-23T08:18:24.393Z,15.11
2022-09-23T08:20:51.770Z,15.05
2022-09-23T08:23:19.115Z,15.50
2022-09-23T08:25:47.015Z,15.77
2022-09-23T08:28:14.583Z,16.23
2022-09-23T08:30:41.978Z,15.67
2022-09-23T08:33:09.369Z,15.22
2022-09-23T08:35:36.744Z,15.20
2022-09-23T08:38:04.094Z,15.24
2022-09-23T08:40:31.764Z,15.23
2022-09-23T08:42:59.175Z,15.33
2022-09-23T08:45:26.534Z,15.39
2022-09-23T08:47:53.877Z,15.52
2022-09-23T08:50:21.304Z,15.95
2022-09-23T08:52:48.750Z,15.79
2022-09-23T08:55:16.123Z,15.48
2022-09-23T08:57:43.464Z,15.20
2022-09-23T09:00:10.820Z,15.41
2022-09-23T09:02:38.208Z,15.33
2022-09-23T09:05:05.642Z,15.51
2022-09-23T09:07:37.409Z,15.82
2022-09-23T09:10:04.962Z,15.80
2022-09-23T09:12:35.165Z,15.82
2022-09-23T09:15:02.558Z,16.04
2022-09-23T09:17:34.369Z,16.12
2022-09-23T09:20:02.404Z,15.66
2022-09-23T09:22:47.855Z,16.04
2022-09-23T09:25:15.200Z,15.93
2022-09-23T09:27:42.547Z,15.95
2022-09-23T09:30:09.807Z,16.17
2022-09-23T09:32:37.167Z,16.19
2022-09-23T09:35:04.526Z,16.27
2022-09-23T09:37:31.905Z,16.65
2022-09-23T09:39:59.250Z,16.68
2022-09-23T09:42:26.611Z,16.81
2022-09-23T09:44:54.070Z,16.41
2022-09-23T09:47:21.682Z,16.85
2022-09-23T09:49:49.212Z,16.82
2022-09-23T09:52:19.496Z,16.21
2022-09-23T09:54:46.921Z,16.16
2022-09-23T09:57:14.260Z,16.62
2022-09-23T09:59:41.617Z,16.84
2022-09-23T10:02:08.958Z,16.77
2022-09-23T10:04:36.376Z,16.59
2022-09-23T10:07:03.798Z,16.51
2022-09-23T10:09:31.275Z,16.29
2022-09-23T10:11:58.651Z,16.64
2022-09-23T10:14:25.996Z,16.39
2022-09-23T10:16:53.401Z,16.38
2022-09-23T10:19:20.810Z,16.49
2022-09-23T10:22:06.421Z,17.01
2022-09-23T10:24:33.806Z,16.51
2022-09-23T10:27:01.153Z,16.71
2022-09-23T10:29:28.505Z,16.71
2022-09-23T10:31:55.882Z,16.69
2022-09-23T10:34:23.245Z,16.72
2022-09-23T10:36:50.597Z,17.14
2022-09-23T10:39:18.066Z,16.56
2022-09-23T10:41:45.426Z,16.65
2022-09-23T10:44:12.784Z,16.54
2022-09-23T10:46:40.246Z,16.41
2022-09-23T10:49:07.654Z,16.65
2022-09-23T10:51:47.170Z,16.65
2022-09-23T10:54:20.834Z,16.35
2022-09-23T10:57:06.413Z,16.69
2022-09-23T10:59:33.787Z,16.72
2022-09-23T11:02:16.326Z,16.90
2022-09-23T11:04:43.753Z,17.22
2022-09-23T11:07:11.201Z,17.00
2022-09-23T11:09:38.544Z,16.92
2022-09-23T11:12:05.895Z,17.11
2022-09-23T11:14:33.318Z,17.17
2022-09-23T11:17:00.758Z,17.22
2022-09-23T11:19:28.140Z,16.91
2022-09-23T11:21:55.484Z,17.34
2022-09-23T11:24:22.839Z,17.16
2022-09-23T11:26:50.215Z,17.75
2022-09-23T11:29:17.579Z,17.71
2022-09-23T11:31:44.928Z,17.60
2022-09-23T11:34:12.287Z,17.38
2022-09-23T11:36:39.639Z,17.47
2022-09-23T11:39:07.003Z,17.59
2022-09-23T11:41:34.358Z,17.70
2022-09-23T11:44:01.739Z,17.77
2022-09-23T11:46:29.165Z,17.94
2022-09-23T11:49:07.050Z,18.13
2022-09-23T11:51:34.416Z,17.90
2022-09-23T11:54:20.906Z,17.72
2022-09-23T11:56:49.297Z,17.92
2022-09-23T11:59:16.826Z,18.35
2022-09-23T12:01:45.767Z,18.26
2022-09-23T12:04:19.923Z,18.76
2022-09-23T12:06:48.312Z,18.66
2022-09-23T12:09:15.669Z,18.45
2022-09-23T12:11:43.198Z,18.44
2022-09-23T12:14:10.590Z,18.41
2022-09-23T12:16:38.034Z,18.04
2022-09-23T12:19:16.252Z,18.33
2022-09-23T12:21:50.641Z,18.57
2022-09-23T12:24:19.362Z,18.46
2022-09-23T12:26:46.764Z,18.30
2022-09-23T12:29:16.192Z,18.66
2022-09-23T12:31:45.359Z,18.56
2022-09-23T12:34:29.415Z,18.27
2022-09-23T12:36:56.775Z,18.41
2022-09-23T12:39:24.134Z,18.23
2022-09-23T12:41:51.508Z,18.44
2022-09-23T12:44:18.866Z,18.26
2022-09-23T12:46:46.321Z,18.47
2022-09-23T12:49:15.225Z,18.49
2022-09-23T12:51:42.575Z,18.45
2022-09-23T12:54:09.995Z,18.55
2022-09-23T12:56:37.374Z,18.81
2022-09-23T12:59:04.726Z,18.66
2022-09-23T13:01:32.141Z,18.60
2022-09-23T13:04:08.537Z,18.75
2022-09-23T13:06:35.914Z,18.86
2022-09-23T13:09:03.273Z,18.86
2022-09-23T13:11:30.641Z,18.65
2022-09-23T13:13:58.023Z,18.61
2022-09-23T13:16:25.413Z,18.44
2022-09-23T13:18:52.795Z,18.93
2022-09-23T13:21:20.144Z,18.76
2022-09-23T13:23:47.520Z,18.95
2022-09-23T13:26:14.888Z,18.56
2022-09-23T13:28:51.201Z,19.18
2022-09-23T13:31:18.635Z,18.75
2022-09-23T13:33:46.053Z,19.04
2022-09-23T13:36:13.411Z,18.85
2022-09-23T13:38:40.784Z,18.80
2022-09-23T13:41:08.157Z,18.84
2022-09-23T13:43:40.279Z,18.56
2022-09-23T13:46:27.555Z,18.32
2022-09-23T13:48:54.915Z,18.65
2022-09-23T13:51:22.301Z,18.87
2022-09-23T13:53:49.690Z,18.81
2022-09-23T13:56:26.078Z,18.81
2022-09-23T13:58:53.453Z,18.68
2022-09-23T14:01:20.856Z,18.87
2022-09-23T14:03:48.212Z,18.52
2022-09-23T14:06:17.472Z,18.66
2022-09-23T14:08:44.846Z,18.69
2022-09-23T14:11:12.192Z,18.62
2022-09-23T14:13:39.541Z,18.70
2022-09-23T14:16:07.064Z,18.82
2022-09-23T14:18:34.469Z,19.33
2022-09-23T14:21:01.811Z,19.54
2022-09-23T14:23:29.184Z,18.81
2022-09-23T14:25:56.537Z,18.95
2022-09-23T14:28:23.893Z,19.33
2022-09-23T14:30:51.349Z,19.40
2022-09-23T14:33:18.705Z,19.08
2022-09-23T14:35:46.048Z,19.45
2022-09-23T14:38:13.418Z,19.34
2022-09-23T14:40:40.807Z,19.20
2022-09-23T14:43:08.168Z,19.44
2022-09-23T14:45:35.627Z,19.18
2022-09-23T14:48:03.064Z,19.33
2022-09-23T14:50:30.425Z,19.78
2022-09-23T14:52:57.780Z,18.93
2022-09-23T14:55:25.150Z,19.03
2022-09-23T14:57:54.421Z,19.27
2022-09-23T15:00:21.794Z,19.16
2022-09-23T15:02:49.171Z,19.08
2022-09-23T15:05:16.529Z,19.05
2022-09-23T15:07:43.906Z,18.86
2022-09-23T15:10:11.277Z,18.87
2022-09-23T15:12:38.697Z,18.71
2022-09-23T15:15:06.057Z,18.88
2022-09-23T15:17:33.432Z,18.81
2022-09-23T15:20:00.891Z,18.53
2022-09-23T15:22:28.240Z,18.84
2022-09-23T15:24:55.593Z,18.75
2022-09-23T15:27:22.968Z,18.99
2022-09-23T15:29:50.325Z,19.10
2022-09-23T15:32:17.671Z,18.89
2022-09-23T15:34:45.102Z,18.77
2022-09-23T15:37:12.505Z,19.08
2022-09-23T15:39:39.908Z,19.11
2022-09-23T15:42:07.259Z,18.74
2022-09-23T15:44:34.614Z,18.42
2022-09-23T15:47:01.990Z,18.36
2022-09-23T15:49:29.340Z,18.67
2022-09-23T15:52:11.888Z,18.75
2022-09-23T15:54:39.241Z,18.70
2022-09-23T15:57:06.596Z,18.73
2022-09-23T15:59:34.056Z,18.87
2022-09-23T16:02:13.521Z,18.77
2022-09-23T16:04:40.957Z,18.75
2022-09-23T16:07:08.351Z,19.00
2022-09-23T16:09:35.701Z,19.03
2022-09-23T16:12:03.066Z,18.94
2022-09-23T16:14:30.450Z,19.05
2022-09-23T16:16:57.850Z,18.76
2022-09-23T16:19:25.276Z,18.61
2022-09-23T16:21:52.622Z,18.52
2022-09-23T16:24:22.545Z,18.55
2022-09-23T16:26:54.072Z,18.68
2022-09-23T16:29:21.425Z,18.54
2022-09-23T16:31:48.843Z,18.57
2022-09-23T16:34:16.271Z,18.40
2022-09-23T16:36:43.667Z,18.56
2022-09-23T16:39:11.094Z,18.06
2022-09-23T16:41:38.502Z,18.22
2022-09-23T16:44:05.874Z,18.46
2022-09-23T16:46:33.276Z,18.27
2022-09-23T16:49:00.703Z,17.77
2022-09-23T16:51:28.077Z,17.94
2022-09-23T16:53:55.425Z,17.70
2022-09-23T16:56:27.412Z,17.62
2022-09-23T16:58:55.933Z,18.05
2022-09-23T17:01:23.385Z,18.04
2022-09-23T17:03:50.745Z,18.46
2022-09-23T17:06:18.099Z,18.53
2022-09-23T17:08:45.459Z,18.09
2022-09-23T17:11:12.796Z,18.26
2022-09-23T17:13:40.168Z,18.11
2022-09-23T17:16:07.568Z,18.24
2022-09-23T17:18:34.936Z,18.28
2022-09-23T17:21:04.400Z,18.52
2022-09-23T17:23:31.815Z,18.37
2022-09-23T17:25:59.188Z,18.37
2022-09-23T17:28:26.553Z,18.33
2022-09-23T17:30:53.896Z,18.15
2022-09-23T17:33:21.242Z,17.83
2022-09-23T17:35:48.621Z,18.05
2022-09-23T17:38:15.989Z,17.96
2022-09-23T17:40:43.387Z,17.61
2022-09-23T17:43:10.781Z,17.44
2022-09-23T17:45:38.158Z,17.66
2022-09-23T17:48:05.558Z,17.82
2022-09-23T17:50:34.938Z,17.53
2022-09-23T17:53:02.290Z,17.66
2022-09-23T17:55:29.637Z,17.64
2022-09-23T17:57:57.017Z,18.07
2022-09-23T18:00:24.369Z,18.26
2022-09-23T18:02:51.713Z,18.35
2022-09-23T18:05:19.081Z,18.06
2022-09-23T18:07:46.438Z,17.80
2022-09-23T18:10:13.813Z,17.98
2022-09-23T18:12:41.284Z,17.96
2022-09-23T18:15:08.642Z,17.98
2022-09-23T18:17:35.992Z,17.96
2022-09-23T18:20:03.384Z,18.01
2022-09-23T18:22:30.724Z,18.15
2022-09-23T18:24:58.078Z,17.99
2022-09-23T18:27:25.443Z,17.66
2022-09-23T18:29:52.816Z,17.64
2022-09-23T18:32:20.155Z,17.82
2022-09-23T18:34:47.498Z,17.65
2022-09-23T18:37:16.868Z,17.68
2022-09-23T18:39:44.739Z,17.54
2022-09-23T18:42:12.234Z,17.79
2022-09-23T18:44:39.589Z,18.04
2022-09-23T18:47:06.811Z,17.88
2022-09-23T18:49:34.267Z,17.97
2022-09-23T18:52:01.616Z,17.16
2022-09-23T18:54:29.001Z,17.44
2022-09-23T18:56:56.450Z,17.60
2022-09-23T18:59:23.830Z,17.83
2022-09-23T19:01:51.417Z,17.91
2022-09-23T19:04:18.932Z,18.34
2022-09-23T19:06:46.302Z,18.35
2022-09-23T19:09:13.644Z,18.31
2022-09-23T19:11:40.994Z,18.30
2022-09-23T19:14:10.879Z,18.31
2022-09-23T19:16:38.707Z,18.29
2022-09-23T19:19:06.097Z,18.19
2022-09-23T19:21:33.579Z,18.09
2022-09-23T19:24:00.994Z,17.61
2022-09-23T19:26:28.352Z,17.80
2022-09-23T19:28:55.826Z,18.11
2022-09-23T19:31:25.148Z,18.14
2022-09-23T19:33:52.526Z,17.74
2022-09-23T19:36:19.901Z,18.03
2022-09-23T19:38:49.177Z,18.19
2022-09-23T19:41:16.536Z,18.11
2022-09-23T19:43:43.920Z,17.80
2022-09-23T19:46:26.561Z,17.71
2022-09-23T19:48:53.984Z,17.62
2022-09-23T19:51:21.332Z,17.57
2022-09-23T19:53:48.680Z,17.43
2022-09-23T19:56:16.043Z,17.06
2022-09-23T19:58:43.396Z,17.41
2022-09-23T20:01:10.815Z,17.13
2022-09-23T20:03:38.326Z,16.82
2022-09-23T20:06:07.539Z,16.81
2022-09-23T20:08:34.879Z,16.86
2022-09-23T20:11:02.259Z,16.70
2022-09-23T20:13:29.621Z,16.42
2022-09-23T20:15:57.149Z,16.86
2022-09-23T20:18:24.580Z,16.89
2022-09-23T20:20:51.934Z,16.92
2022-09-23T20:23:19.315Z,16.92
2022-09-23T20:25:46.667Z,17.34
2022-09-23T20:28:14.032Z,16.99
2022-09-23T20:30:41.381Z,17.24
2022-09-23T20:33:08.728Z,17.17
2022-09-23T20:35:36.090Z,16.99
2022-09-23T20:38:07.878Z,16.85
2022-09-23T20:40:35.539Z,16.85
2022-09-23T20:43:02.933Z,16.98
2022-09-23T20:45:30.282Z,17.08
2022-09-23T20:47:57.628Z,16.81
2022-09-23T20:50:24.999Z,16.89
2022-09-23T20:52:52.348Z,16.51
2022-09-23T20:55:19.699Z,16.45
2022-09-23T20:57:49.062Z,16.24
2022-09-23T21:00:16.406Z,16.38
2022-09-23T21:02:43.754Z,16.50
2022-09-23T21:05:11.116Z,16.62
2022-09-23T21:07:38.491Z,16.82
2022-09-23T21:10:05.982Z,16.76
2022-09-23T21:12:33.371Z,16.37
2022-09-23T21:15:00.727Z,16.40
2022-09-23T21:17:28.079Z,16.57
2022-09-23T21:19:55.429Z,16.66
2022-09-23T21:22:22.794Z,16.68
2022-09-23T21:27:37.523Z,16.61
2022-09-23T21:30:04.890Z,16.71
2022-09-23T21:32:32.247Z,16.36
2022-09-23T21:34:59.616Z,16.41
2022-09-23T21:37:26.968Z,16.24
2022-09-23T21:39:54.319Z,16.08
2022-09-23T21:42:21.775Z,16.15
2022-09-23T21:44:51.046Z,16.27
2022-09-23T21:47:18.388Z,16.34
2022-09-23T21:49:49.942Z,16.24
2022-09-23T21:52:18.189Z,16.19
2022-09-23T21:54:45.429Z,16.46
2022-09-23T21:57:12.789Z,16.43
2022-09-23T21:59:40.137Z,16.58
2022-09-23T22:02:07.521Z,16.02
2022-09-23T22:04:34.904Z,16.13
2022-09-23T22:07:02.315Z,16.21
2022-09-23T22:09:29.682Z,16.36
2022-09-23T22:11:57.034Z,16.57
2022-09-23T22:14:24.389Z,16.13
2022-09-23T22:16:51.849Z,16.10
2022-09-23T22:19:19.203Z,16.16
2022-09-23T22:21:46.556Z,16.14
2022-09-23T22:24:13.939Z,16.09
2022-09-23T22:26:41.297Z,16.12
2022-09-23T22:29:08.646Z,15.82
2022-09-23T22:31:36.065Z,15.64
2022-09-23T22:34:03.513Z,15.87
2022-09-23T22:36:30.973Z,16.10
2022-09-23T22:38:59.331Z,16.27
2022-09-23T22:41:26.843Z,16.46
2022-09-23T22:43:54.200Z,16.42
2022-09-23T22:46:21.641Z,16.18
2022-09-23T22:48:49.043Z,15.71
2022-09-23T22:51:16.398Z,15.44
2022-09-23T22:53:43.769Z,15.86
2022-09-23T22:56:11.134Z,15.55
2022-09-23T22:58:38.497Z,15.76
2022-09-23T23:01:05.872Z,15.79
2022-09-23T23:03:33.244Z,15.80
2022-09-23T23:06:00.637Z,15.46
2022-09-23T23:08:28.014Z,15.53
2022-09-23T23:10:57.280Z,15.50
2022-09-23T23:13:24.623Z,15.77
2022-09-23T23:15:52.036Z,15.54
2022-09-23T23:18:19.402Z,15.80
2022-09-23T23:20:46.763Z,15.70
2022-09-23T23:23:14.142Z,15.69
2022-09-23T23:25:50.592Z,15.76
2022-09-23T23:28:17.962Z,16.10
2022-09-23T23:30:45.332Z,15.85
2022-09-23T23:33:12.678Z,15.79
2022-09-23T23:35:40.030Z,15.54
2022-09-23T23:38:07.403Z,15.73
2022-09-23T23:40:34.819Z,15.78
2022-09-23T23:43:02.216Z,15.82
2022-09-23T23:45:29.587Z,15.67
2022-09-23T23:47:56.808Z,15.87
2022-09-23T23:50:24.175Z,15.70
2022-09-23T23:52:51.536Z,16.20
2022-09-23T23:55:18.899Z,16.13
2022-09-23T23:57:46.253Z,15.94
